sensor_id;sensor_type;location;lat;lon;timestamp;pressure;altitude;pressure_sealevel;temperature;humidity
41383;BME280;27971;53.902;9.118;2022-09-20T00:00:48;101874.0;;;25.02;28.63
41383;BME280;27971;53.902;9.118;2022-09-20T00:02:50;101876.0;;;25.0;28.61
41383;BME280;27971;53.902;9.118;2022-09-20T00:04:53;101876.0;;;24.96;28.59
41383;BME280;27971;53.902;9.118;2022-09-20T00:06:56;101875.0;;;24.93;28.64
41383;BME280;27971;53.902;9.118;2022-09-20T00:08:59;101874.0;;;24.89;28.75
41383;BME280;27971;53.902;9.118;2022-09-20T00:11:02;101874.0;;;24.87;28.74
41383;BME280;27971;53.902;9.118;2022-09-20T00:13:04;101878.0;;;24.9;28.73
41383;BME280;27971;53.902;9.118;2022-09-20T00:15:07;101881.0;;;24.88;28.77
41383;BME280;27971;53.902;9.118;2022-09-20T00:17:08;101883.0;;;24.99;28.65
41383;BME280;27971;53.902;9.118;2022-09-20T00:19:17;101883.0;;;25.09;28.6
41383;BME280;27971;53.902;9.118;2022-09-20T00:21:15;101883.0;;;25.1;28.59
41383;BME280;27971;53.902;9.118;2022-09-20T00:23:17;101885.0;;;25.07;28.57
41383;BME280;27971;53.902;9.118;2022-09-20T00:25:19;101886.0;;;25.01;28.61
41383;BME280;27971;53.902;9.118;2022-09-20T00:27:22;101885.0;;;25.01;28.62
41383;BME280;27971;53.902;9.118;2022-09-20T00:29:24;101887.0;;;24.85;28.76
41383;BME280;27971;53.902;9.118;2022-09-20T00:31:27;101888.0;;;24.81;28.81
41383;BME280;27971;53.902;9.118;2022-09-20T00:33:29;101891.0;;;24.81;28.83
41383;BME280;27971;53.902;9.118;2022-09-20T00:35:31;101891.0;;;24.76;28.82
41383;BME280;27971;53.902;9.118;2022-09-20T00:37:34;101893.0;;;24.72;28.9
41383;BME280;27971;53.902;9.118;2022-09-20T00:39:37;101891.0;;;24.84;28.78
41383;BME280;27971;53.902;9.118;2022-09-20T00:41:39;101892.0;;;25.06;28.53
41383;BME280;27971;53.902;9.118;2022-09-20T00:43:44;101894.0;;;25.1;28.49
41383;BME280;27971;53.902;9.118;2022-09-20T00:45:45;101896.0;;;25.07;28.51
41383;BME280;27971;53.902;9.118;2022-09-20T00:47:50;101898.0;;;25.15;28.46
41383;BME280;27971;53.902;9.118;2022-09-20T00:49:53;101900.0;;;25.2;28.39
41383;BME280;27971;53.902;9.118;2022-09-20T00:51:55;101901.0;;;25.1;28.49
41383;BME280;27971;53.902;9.118;2022-09-20T00:53:58;101903.0;;;25.11;28.46
41383;BME280;27971;53.902;9.118;2022-09-20T00:56:02;101904.0;;;25.15;28.39
41383;BME280;27971;53.902;9.118;2022-09-20T00:58:02;101908.0;;;25.12;28.42
41383;BME280;27971;53.902;9.118;2022-09-20T01:00:07;101910.0;;;25.13;28.38
41383;BME280;27971;53.902;9.118;2022-09-20T01:02:10;101913.0;;;24.98;28.55
41383;BME280;27971;53.902;9.118;2022-09-20T01:04:11;101914.0;;;24.98;28.53
41383;BME280;27971;53.902;9.118;2022-09-20T01:06:14;101913.0;;;24.91;28.58
41383;BME280;27971;53.902;9.118;2022-09-20T01:08:16;101914.0;;;24.87;28.64
41383;BME280;27971;53.902;9.118;2022-09-20T01:10:18;101914.0;;;24.88;28.62
41383;BME280;27971;53.902;9.118;2022-09-20T01:12:22;101913.0;;;24.96;28.54
41383;BME280;27971;53.902;9.118;2022-09-20T01:14:24;101914.0;;;24.96;28.55
41383;BME280;27971;53.902;9.118;2022-09-20T01:16:26;101916.0;;;24.91;28.58
41383;BME280;27971;53.902;9.118;2022-09-20T01:18:31;101916.0;;;24.97;28.51
41383;BME280;27971;53.902;9.118;2022-09-20T05:48:01;102042.0;;;20.88;31.22
41383;BME280;27971;53.902;9.118;2022-09-20T05:50:13;102044.0;;;21.43;30.16
41383;BME280;27971;53.902;9.118;2022-09-20T05:52:13;102042.0;;;22.4;28.95
41383;BME280;27971;53.902;9.118;2022-09-20T05:54:26;102044.0;;;22.77;28.44
41383;BME280;27971;53.902;9.118;2022-09-20T05:56:15;102047.0;;;24.16;27.96
41383;BME280;27971;53.902;9.118;2022-09-20T05:58:25;102050.0;;;24.07;28.04
41383;BME280;27971;53.902;9.118;2022-09-20T06:00:18;102050.0;;;23.54;28.62
41383;BME280;27971;53.902;9.118;2022-09-20T06:02:27;102052.0;;;23.93;28.3
41383;BME280;27971;53.902;9.118;2022-09-20T06:04:23;102054.0;;;23.6;28.64
41383;BME280;27971;53.902;9.118;2022-09-20T06:06:28;102057.0;;;22.94;29.34
41383;BME280;27971;53.902;9.118;2022-09-20T06:08:37;102056.0;;;23.1;29.07
41383;BME280;27971;53.902;9.118;2022-09-20T06:10:41;102056.0;;;23.4;28.76
41383;BME280;27971;53.902;9.118;2022-09-20T06:12:46;102058.0;;;22.87;29.25
41383;BME280;27971;53.902;9.118;2022-09-20T06:14:40;102060.0;;;22.99;29.38
41383;BME280;27971;53.902;9.118;2022-09-20T06:16:42;102064.0;;;22.5;29.96
41383;BME280;27971;53.902;9.118;2022-09-20T06:18:44;102069.0;;;22.04;30.5
41383;BME280;27971;53.902;9.118;2022-09-20T06:20:48;102069.0;;;21.97;30.79
41383;BME280;27971;53.902;9.118;2022-09-20T06:22:47;102070.0;;;22.09;30.71
41383;BME280;27971;53.902;9.118;2022-09-20T06:24:52;102073.0;;;21.53;31.22
41383;BME280;27971;53.902;9.118;2022-09-20T06:26:52;102075.0;;;21.49;31.41
41383;BME280;27971;53.902;9.118;2022-09-20T06:28:55;102078.0;;;21.39;31.6
41383;BME280;27971;53.902;9.118;2022-09-20T06:30:56;102081.0;;;21.92;31.02
41383;BME280;27971;53.902;9.118;2022-09-20T06:32:59;102082.0;;;21.66;30.98
41383;BME280;27971;53.902;9.118;2022-09-20T06:35:02;102082.0;;;21.62;31.19
41383;BME280;27971;53.902;9.118;2022-09-20T06:37:15;102080.0;;;21.8;31.08
41383;BME280;27971;53.902;9.118;2022-09-20T06:39:14;102079.0;;;22.75;30.22
41383;BME280;27971;53.902;9.118;2022-09-20T06:41:11;102081.0;;;22.96;29.97
41383;BME280;27971;53.902;9.118;2022-09-20T06:43:14;102081.0;;;23.03;29.82
41383;BME280;27971;53.902;9.118;2022-09-20T06:45:16;102081.0;;;23.37;29.51
41383;BME280;27971;53.902;9.118;2022-09-20T06:47:18;102082.0;;;23.13;29.61
41383;BME280;27971;53.902;9.118;2022-09-20T06:49:21;102080.0;;;22.87;29.83
41383;BME280;27971;53.902;9.118;2022-09-20T06:51:25;102080.0;;;22.19;30.38
41383;BME280;27971;53.902;9.118;2022-09-20T06:53:31;102081.0;;;21.86;30.76
41383;BME280;27971;53.902;9.118;2022-09-20T06:55:32;102079.0;;;22.22;30.71
41383;BME280;27971;53.902;9.118;2022-09-20T06:57:33;102083.0;;;21.87;31.17
41383;BME280;27971;53.902;9.118;2022-09-20T06:59:34;102084.0;;;22.08;30.85
41383;BME280;27971;53.902;9.118;2022-09-20T07:01:37;102086.0;;;22.01;30.84
41383;BME280;27971;53.902;9.118;2022-09-20T07:03:40;102087.0;;;22.02;30.79
41383;BME280;27971;53.902;9.118;2022-09-20T07:05:43;102089.0;;;21.8;30.93
41383;BME280;27971;53.902;9.118;2022-09-20T07:07:45;102092.0;;;21.73;31.13
41383;BME280;27971;53.902;9.118;2022-09-20T07:09:48;102093.0;;;22.37;30.52
41383;BME280;27971;53.902;9.118;2022-09-20T07:11:50;102097.0;;;21.83;31.24
41383;BME280;27971;53.902;9.118;2022-09-20T07:13:54;102098.0;;;22.08;30.96
41383;BME280;27971;53.902;9.118;2022-09-20T07:15:59;102099.0;;;22.08;30.88
41383;BME280;27971;53.902;9.118;2022-09-20T07:17:58;102102.0;;;22.3;30.61
41383;BME280;27971;53.902;9.118;2022-09-20T07:20:01;102103.0;;;22.52;30.44
41383;BME280;27971;53.902;9.118;2022-09-20T07:22:03;102107.0;;;21.83;31.13
41383;BME280;27971;53.902;9.118;2022-09-20T07:24:06;102110.0;;;21.89;31.12
41383;BME280;27971;53.902;9.118;2022-09-20T07:26:16;102112.0;;;22.01;30.95
41383;BME280;27971;53.902;9.118;2022-09-20T07:28:11;102113.0;;;22.3;30.73
41383;BME280;27971;53.902;9.118;2022-09-20T07:30:14;102111.0;;;22.88;30.0
41383;BME280;27971;53.902;9.118;2022-09-20T07:32:17;102113.0;;;22.63;30.13
41383;BME280;27971;53.902;9.118;2022-09-20T07:34:19;102119.0;;;21.59;31.17
41383;BME280;27971;53.902;9.118;2022-09-20T07:36:21;102119.0;;;21.86;30.93
41383;BME280;27971;53.902;9.118;2022-09-20T07:38:24;102120.0;;;22.07;30.66
41383;BME280;27971;53.902;9.118;2022-09-20T07:40:26;102120.0;;;22.54;30.33
41383;BME280;27971;53.902;9.118;2022-09-20T07:42:29;102123.0;;;21.83;30.95
41383;BME280;27971;53.902;9.118;2022-09-20T07:44:31;102124.0;;;21.25;31.55
41383;BME280;27971;53.902;9.118;2022-09-20T07:46:34;102128.0;;;21.38;31.5
41383;BME280;27971;53.902;9.118;2022-09-20T07:48:37;102131.0;;;21.06;31.95
41383;BME280;27971;53.902;9.118;2022-09-20T07:50:40;102132.0;;;21.09;31.94
41383;BME280;27971;53.902;9.118;2022-09-20T07:52:42;102134.0;;;21.04;31.89
41383;BME280;27971;53.902;9.118;2022-09-20T07:54:44;102139.0;;;21.57;31.41
41383;BME280;27971;53.902;9.118;2022-09-20T07:56:47;102138.0;;;21.08;31.8
41383;BME280;27971;53.902;9.118;2022-09-20T07:58:50;102141.0;;;21.21;31.65
41383;BME280;27971;53.902;9.118;2022-09-20T08:00:53;102140.0;;;21.99;30.78
41383;BME280;27971;53.902;9.118;2022-09-20T08:02:57;102139.0;;;22.67;30.07
41383;BME280;27971;53.902;9.118;2022-09-20T08:04:58;102141.0;;;22.48;30.42
41383;BME280;27971;53.902;9.118;2022-09-20T08:07:01;102139.0;;;23.44;29.49
41383;BME280;27971;53.902;9.118;2022-09-20T08:09:03;102142.0;;;22.53;30.26
41383;BME280;27971;53.902;9.118;2022-09-20T08:11:08;102144.0;;;22.75;30.04
41383;BME280;27971;53.902;9.118;2022-09-20T08:13:08;102148.0;;;21.68;31.12
41383;BME280;27971;53.902;9.118;2022-09-20T08:15:11;102146.0;;;22.94;29.86
41383;BME280;27971;53.902;9.118;2022-09-20T08:17:14;102150.0;;;22.53;30.11
41383;BME280;27971;53.902;9.118;2022-09-20T08:19:18;102151.0;;;22.08;30.65
41383;BME280;27971;53.902;9.118;2022-09-20T08:21:20;102153.0;;;21.94;30.74
41383;BME280;27971;53.902;9.118;2022-09-20T08:23:23;102154.0;;;23.02;29.83
41383;BME280;27971;53.902;9.118;2022-09-20T08:25:25;102157.0;;;22.19;30.51
41383;BME280;27971;53.902;9.118;2022-09-20T08:27:27;102154.0;;;23.21;29.54
41383;BME280;27971;53.902;9.118;2022-09-20T08:29:30;102153.0;;;23.62;29.09
41383;BME280;27971;53.902;9.118;2022-09-20T08:31:35;102156.0;;;23.47;29.17
41383;BME280;27971;53.902;9.118;2022-09-20T08:33:36;102157.0;;;23.82;28.9
41383;BME280;27971;53.902;9.118;2022-09-20T08:35:38;102157.0;;;24.32;28.21
41383;BME280;27971;53.902;9.118;2022-09-20T08:37:40;102159.0;;;22.85;29.3
41383;BME280;27971;53.902;9.118;2022-09-20T08:39:43;102160.0;;;22.44;29.54
41383;BME280;27971;53.902;9.118;2022-09-20T08:41:51;102159.0;;;21.75;30.15
41383;BME280;27971;53.902;9.118;2022-09-20T08:43:50;102155.0;;;23.85;28.37
41383;BME280;27971;53.902;9.118;2022-09-20T08:45:51;102154.0;;;24.99;27.42
41383;BME280;27971;53.902;9.118;2022-09-20T08:47:56;102155.0;;;25.1;27.23
41383;BME280;27971;53.902;9.118;2022-09-20T08:49:57;102157.0;;;25.77;26.58
41383;BME280;27971;53.902;9.118;2022-09-20T08:51:59;102158.0;;;25.65;26.6
41383;BME280;27971;53.902;9.118;2022-09-20T08:54:01;102162.0;;;25.56;26.77
41383;BME280;27971;53.902;9.118;2022-09-20T08:56:05;102164.0;;;25.48;26.74
41383;BME280;27971;53.902;9.118;2022-09-20T08:58:10;102161.0;;;25.88;26.36
41383;BME280;27971;53.902;9.118;2022-09-20T09:00:15;102161.0;;;26.23;26.02
41383;BME280;27971;53.902;9.118;2022-09-20T09:02:14;102162.0;;;26.19;26.06
41383;BME280;27971;53.902;9.118;2022-09-20T09:04:17;102165.0;;;26.0;26.14
41383;BME280;27971;53.902;9.118;2022-09-20T09:06:19;102165.0;;;26.12;25.92
41383;BME280;27971;53.902;9.118;2022-09-20T09:08:22;102165.0;;;26.28;25.76
41383;BME280;27971;53.902;9.118;2022-09-20T09:10:23;102165.0;;;26.13;25.91
41383;BME280;27971;53.902;9.118;2022-09-20T09:12:29;102164.0;;;26.09;26.0
41383;BME280;27971;53.902;9.118;2022-09-20T09:14:29;102163.0;;;26.1;26.02
41383;BME280;27971;53.902;9.118;2022-09-20T09:16:32;102163.0;;;26.08;26.11
41383;BME280;27971;53.902;9.118;2022-09-20T09:18:36;102165.0;;;25.89;26.29
41383;BME280;27971;53.902;9.118;2022-09-20T09:20:40;102164.0;;;26.04;26.11
41383;BME280;27971;53.902;9.118;2022-09-20T09:22:40;102166.0;;;25.89;26.26
41383;BME280;27971;53.902;9.118;2022-09-20T09:24:41;102169.0;;;25.83;26.37
41383;BME280;27971;53.902;9.118;2022-09-20T09:26:44;102170.0;;;25.81;26.41
41383;BME280;27971;53.902;9.118;2022-09-20T09:29:07;102172.0;;;25.8;26.44
41383;BME280;27971;53.902;9.118;2022-09-20T09:30:49;102174.0;;;25.82;26.6
41383;BME280;27971;53.902;9.118;2022-09-20T09:32:52;102176.0;;;25.76;26.65
41383;BME280;27971;53.902;9.118;2022-09-20T09:34:55;102180.0;;;26.1;26.78
41383;BME280;27971;53.902;9.118;2022-09-20T09:36:58;102183.0;;;25.36;27.24
41383;BME280;27971;53.902;9.118;2022-09-20T09:39:22;102183.0;;;25.8;26.88
41383;BME280;27971;53.902;9.118;2022-09-20T09:41:05;102187.0;;;25.88;27.02
41383;BME280;27971;53.902;9.118;2022-09-20T09:43:19;102189.0;;;25.78;27.01
41383;BME280;27971;53.902;9.118;2022-09-20T09:45:10;102191.0;;;25.68;27.25
41383;BME280;27971;53.902;9.118;2022-09-20T09:47:23;102191.0;;;25.14;27.67
41383;BME280;27971;53.902;9.118;2022-09-20T09:49:17;102191.0;;;24.85;28.0
41383;BME280;27971;53.902;9.118;2022-09-20T09:51:19;102191.0;;;25.19;27.65
41383;BME280;27971;53.902;9.118;2022-09-20T09:53:21;102192.0;;;25.08;27.68
41383;BME280;27971;53.902;9.118;2022-09-20T09:55:27;102194.0;;;23.57;29.01
41383;BME280;27971;53.902;9.118;2022-09-20T09:57:39;102192.0;;;22.79;29.76
41383;BME280;27971;53.902;9.118;2022-09-20T09:59:39;102189.0;;;23.96;28.91
41383;BME280;27971;53.902;9.118;2022-09-20T10:01:35;102190.0;;;23.82;29.04
41383;BME280;27971;53.902;9.118;2022-09-20T10:03:44;102193.0;;;23.28;29.47
41383;BME280;27971;53.902;9.118;2022-09-20T10:05:45;102195.0;;;23.15;29.49
41383;BME280;27971;53.902;9.118;2022-09-20T10:07:45;102198.0;;;23.2;29.52
41383;BME280;27971;53.902;9.118;2022-09-20T10:09:57;102197.0;;;24.07;28.72
41383;BME280;27971;53.902;9.118;2022-09-20T10:12:00;102197.0;;;23.52;29.34
41383;BME280;27971;53.902;9.118;2022-09-20T10:13:59;102199.0;;;23.46;29.48
41383;BME280;27971;53.902;9.118;2022-09-20T10:15:57;102202.0;;;22.07;30.69
41383;BME280;27971;53.902;9.118;2022-09-20T10:18:05;102198.0;;;22.49;30.3
41383;BME280;27971;53.902;9.118;2022-09-20T10:20:13;102197.0;;;22.25;30.55
41383;BME280;27971;53.902;9.118;2022-09-20T10:22:06;102195.0;;;22.98;30.02
41383;BME280;27971;53.902;9.118;2022-09-20T10:24:13;102200.0;;;22.38;30.37
41383;BME280;27971;53.902;9.118;2022-09-20T10:26:15;102199.0;;;22.4;30.5
41383;BME280;27971;53.902;9.118;2022-09-20T10:28:20;102198.0;;;22.35;30.55
41383;BME280;27971;53.902;9.118;2022-09-20T10:30:13;102199.0;;;22.33;30.59
41383;BME280;27971;53.902;9.118;2022-09-20T10:32:24;102199.0;;;22.37;30.42
41383;BME280;27971;53.902;9.118;2022-09-20T10:34:36;102197.0;;;22.23;30.58
41383;BME280;27971;53.902;9.118;2022-09-20T10:36:24;102195.0;;;22.08;30.85
41383;BME280;27971;53.902;9.118;2022-09-20T10:38:26;102196.0;;;21.78;31.08
41383;BME280;27971;53.902;9.118;2022-09-20T10:40:32;102197.0;;;22.0;30.82
41383;BME280;27971;53.902;9.118;2022-09-20T10:42:35;102197.0;;;22.29;30.35
41383;BME280;27971;53.902;9.118;2022-09-20T10:44:42;102202.0;;;22.24;30.43
41383;BME280;27971;53.902;9.118;2022-09-20T10:46:45;102202.0;;;22.2;30.55
41383;BME280;27971;53.902;9.118;2022-09-20T10:48:40;102203.0;;;22.33;30.4
41383;BME280;27971;53.902;9.118;2022-09-20T10:50:46;102205.0;;;22.5;30.22
41383;BME280;27971;53.902;9.118;2022-09-20T10:52:54;102208.0;;;22.45;30.23
41383;BME280;27971;53.902;9.118;2022-09-20T10:54:57;102208.0;;;23.08;29.81
41383;BME280;27971;53.902;9.118;2022-09-20T10:56:53;102210.0;;;23.85;28.98
41383;BME280;27971;53.902;9.118;2022-09-20T10:59:32;102210.0;;;24.11;28.74
41383;BME280;27971;53.902;9.118;2022-09-20T11:00:59;102209.0;;;24.57;28.63
41383;BME280;27971;53.902;9.118;2022-09-20T11:03:07;102210.0;;;24.57;28.54
41383;BME280;27971;53.902;9.118;2022-09-20T11:05:15;102206.0;;;24.58;28.46
41383;BME280;27971;53.902;9.118;2022-09-20T11:07:09;102209.0;;;24.52;28.62
41383;BME280;27971;53.902;9.118;2022-09-20T11:09:08;102212.0;;;24.03;28.95
41383;BME280;27971;53.902;9.118;2022-09-20T11:11:14;102211.0;;;24.49;28.46
41383;BME280;27971;53.902;9.118;2022-09-20T11:13:21;102216.0;;;24.41;28.55
41383;BME280;27971;53.902;9.118;2022-09-20T11:15:19;102221.0;;;23.54;29.06
41383;BME280;27971;53.902;9.118;2022-09-20T11:17:22;102217.0;;;24.73;28.22
41383;BME280;27971;53.902;9.118;2022-09-20T11:19:25;102218.0;;;24.82;28.15
41383;BME280;27971;53.902;9.118;2022-09-20T11:21:26;102221.0;;;24.59;28.47
41383;BME280;27971;53.902;9.118;2022-09-20T11:23:34;102219.0;;;24.67;28.3
41383;BME280;27971;53.902;9.118;2022-09-20T11:25:33;102221.0;;;24.25;28.66
41383;BME280;27971;53.902;9.118;2022-09-20T11:27:36;102220.0;;;24.6;28.25
41383;BME280;27971;53.902;9.118;2022-09-20T11:29:38;102219.0;;;25.19;27.67
41383;BME280;27971;53.902;9.118;2022-09-20T11:31:41;102219.0;;;24.87;27.89
41383;BME280;27971;53.902;9.118;2022-09-20T11:33:44;102219.0;;;25.26;27.47
41383;BME280;27971;53.902;9.118;2022-09-20T11:35:46;102219.0;;;25.81;26.95
41383;BME280;27971;53.902;9.118;2022-09-20T11:37:49;102219.0;;;25.93;26.74
41383;BME280;27971;53.902;9.118;2022-09-20T11:39:53;102222.0;;;25.61;27.06
41383;BME280;27971;53.902;9.118;2022-09-20T11:41:54;102220.0;;;25.89;26.92
41383;BME280;27971;53.902;9.118;2022-09-20T11:44:00;102219.0;;;25.39;27.33
41383;BME280;27971;53.902;9.118;2022-09-20T11:46:00;102219.0;;;24.8;27.99
41383;BME280;27971;53.902;9.118;2022-09-20T11:48:02;102221.0;;;25.34;27.47
41383;BME280;27971;53.902;9.118;2022-09-20T11:50:27;102222.0;;;25.63;27.16
41383;BME280;27971;53.902;9.118;2022-09-20T11:52:50;102221.0;;;25.58;27.28
41383;BME280;27971;53.902;9.118;2022-09-20T11:54:27;102220.0;;;25.07;27.95
41383;BME280;27971;53.902;9.118;2022-09-20T11:56:15;102225.0;;;23.72;29.24
41383;BME280;27971;53.902;9.118;2022-09-20T11:58:15;102226.0;;;23.65;29.28
41383;BME280;27971;53.902;9.118;2022-09-20T12:00:28;102226.0;;;23.02;29.84
41383;BME280;27971;53.902;9.118;2022-09-20T12:02:22;102225.0;;;23.59;29.2
41383;BME280;27971;53.902;9.118;2022-09-20T12:04:25;102226.0;;;22.71;29.96
41383;BME280;27971;53.902;9.118;2022-09-20T12:06:29;102225.0;;;23.46;29.23
41383;BME280;27971;53.902;9.118;2022-09-20T12:08:32;102225.0;;;23.91;28.68
41383;BME280;27971;53.902;9.118;2022-09-20T12:10:33;102228.0;;;23.99;28.57
41383;BME280;27971;53.902;9.118;2022-09-20T12:12:37;102232.0;;;23.63;28.7
41383;BME280;27971;53.902;9.118;2022-09-20T12:14:37;102231.0;;;23.73;28.6
41383;BME280;27971;53.902;9.118;2022-09-20T12:16:42;102235.0;;;22.15;30.01
41383;BME280;27971;53.902;9.118;2022-09-20T12:19:00;102235.0;;;23.14;29.38
41383;BME280;27971;53.902;9.118;2022-09-20T12:21:17;102233.0;;;23.67;29.08
41383;BME280;27971;53.902;9.118;2022-09-20T12:22:47;102235.0;;;22.08;30.64
41383;BME280;27971;53.902;9.118;2022-09-20T12:25:34;102237.0;;;22.5;30.1
41383;BME280;27971;53.902;9.118;2022-09-20T12:26:54;102236.0;;;23.18;29.87
41383;BME280;27971;53.902;9.118;2022-09-20T12:28:57;102235.0;;;23.2;29.52
41383;BME280;27971;53.902;9.118;2022-09-20T12:31:36;102236.0;;;23.32;29.33
41383;BME280;27971;53.902;9.118;2022-09-20T12:33:01;102238.0;;;23.21;29.63
41383;BME280;27971;53.902;9.118;2022-09-20T12:35:51;102240.0;;;23.18;29.49
41383;BME280;27971;53.902;9.118;2022-09-20T12:37:23;102238.0;;;23.33;29.65
41383;BME280;27971;53.902;9.118;2022-09-20T12:39:15;102239.0;;;23.35;29.59
41383;BME280;27971;53.902;9.118;2022-09-20T12:41:15;102237.0;;;23.83;28.99
41383;BME280;27971;53.902;9.118;2022-09-20T12:43:18;102239.0;;;22.49;30.02
41383;BME280;27971;53.902;9.118;2022-09-20T12:45:19;102240.0;;;22.68;29.85
41383;BME280;27971;53.902;9.118;2022-09-20T12:47:23;102239.0;;;23.08;29.39
41383;BME280;27971;53.902;9.118;2022-09-20T12:49:34;102238.0;;;22.97;29.44
41383;BME280;27971;53.902;9.118;2022-09-20T12:51:30;102238.0;;;22.83;29.67
41383;BME280;27971;53.902;9.118;2022-09-20T12:53:30;102238.0;;;22.89;29.54
41383;BME280;27971;53.902;9.118;2022-09-20T12:55:36;102238.0;;;23.54;29.01
41383;BME280;27971;53.902;9.118;2022-09-20T12:57:35;102239.0;;;23.78;28.83
41383;BME280;27971;53.902;9.118;2022-09-20T12:59:39;102240.0;;;22.85;29.54
41383;BME280;27971;53.902;9.118;2022-09-20T13:01:41;102241.0;;;22.16;30.12
41383;BME280;27971;53.902;9.118;2022-09-20T13:03:45;102244.0;;;22.77;29.56
41383;BME280;27971;53.902;9.118;2022-09-20T13:05:49;102245.0;;;23.22;29.08
41383;BME280;27971;53.902;9.118;2022-09-20T13:07:53;102247.0;;;22.35;29.69
41383;BME280;27971;53.902;9.118;2022-09-20T13:09:53;102250.0;;;22.35;29.67
41383;BME280;27971;53.902;9.118;2022-09-20T13:11:56;102252.0;;;23.56;28.51
41383;BME280;27971;53.902;9.118;2022-09-20T13:14:01;102252.0;;;22.75;28.78
41383;BME280;27971;53.902;9.118;2022-09-20T13:16:01;102251.0;;;22.95;28.44
41383;BME280;27971;53.902;9.118;2022-09-20T13:18:02;102254.0;;;23.44;27.74
41383;BME280;27971;53.902;9.118;2022-09-20T13:20:12;102249.0;;;23.68;27.31
41383;BME280;27971;53.902;9.118;2022-09-20T13:22:10;102251.0;;;23.54;27.57
41383;BME280;27971;53.902;9.118;2022-09-20T13:24:14;102255.0;;;22.13;28.67
41383;BME280;27971;53.902;9.118;2022-09-20T13:26:14;102256.0;;;22.71;28.19
41383;BME280;27971;53.902;9.118;2022-09-20T13:28:25;102258.0;;;21.86;28.58
41383;BME280;27971;53.902;9.118;2022-09-20T13:30:21;102257.0;;;22.74;27.82
41383;BME280;27971;53.902;9.118;2022-09-20T13:32:23;102259.0;;;22.22;27.91
41383;BME280;27971;53.902;9.118;2022-09-20T13:34:24;102259.0;;;21.9;28.05
41383;BME280;27971;53.902;9.118;2022-09-20T13:36:27;102260.0;;;22.42;27.58
41383;BME280;27971;53.902;9.118;2022-09-20T13:38:30;102260.0;;;23.66;26.28
41383;BME280;27971;53.902;9.118;2022-09-20T13:40:34;102262.0;;;23.2;26.49
41383;BME280;27971;53.902;9.118;2022-09-20T13:42:34;102260.0;;;23.12;26.41
41383;BME280;27971;53.902;9.118;2022-09-20T13:44:37;102258.0;;;22.46;26.81
41383;BME280;27971;53.902;9.118;2022-09-20T13:46:43;102259.0;;;22.04;27.05
41383;BME280;27971;53.902;9.118;2022-09-20T13:48:41;102261.0;;;21.63;27.17
41383;BME280;27971;53.902;9.118;2022-09-20T13:50:44;102262.0;;;22.73;26.3
41383;BME280;27971;53.902;9.118;2022-09-20T13:52:48;102263.0;;;23.16;25.85
41383;BME280;27971;53.902;9.118;2022-09-20T13:54:50;102263.0;;;22.96;25.86
41383;BME280;27971;53.902;9.118;2022-09-20T13:56:59;102261.0;;;24.03;25.02
41383;BME280;27971;53.902;9.118;2022-09-20T13:58:55;102259.0;;;23.74;25.11
41383;BME280;27971;53.902;9.118;2022-09-20T14:00:59;102259.0;;;22.76;25.74
41383;BME280;27971;53.902;9.118;2022-09-20T14:03:01;102260.0;;;22.79;25.77
41383;BME280;27971;53.902;9.118;2022-09-20T14:05:05;102258.0;;;22.97;25.69
41383;BME280;27971;53.902;9.118;2022-09-20T14:07:06;102254.0;;;23.87;24.96
41383;BME280;27971;53.902;9.118;2022-09-20T14:09:19;102255.0;;;23.5;24.56
41383;BME280;27971;53.902;9.118;2022-09-20T14:11:14;102256.0;;;25.36;22.84
41383;BME280;27971;53.902;9.118;2022-09-20T14:13:16;102256.0;;;25.43;22.14
41383;BME280;27971;53.902;9.118;2022-09-20T14:15:18;102256.0;;;24.83;22.43
41383;BME280;27971;53.902;9.118;2022-09-20T14:17:21;102258.0;;;24.87;22.4
41383;BME280;27971;53.902;9.118;2022-09-20T14:19:29;102259.0;;;25.39;21.92
41383;BME280;27971;53.902;9.118;2022-09-20T14:21:30;102261.0;;;25.5;21.79
41383;BME280;27971;53.902;9.118;2022-09-20T14:23:47;102262.0;;;25.89;21.44
41383;BME280;27971;53.902;9.118;2022-09-20T14:25:32;102260.0;;;26.23;21.08
41383;BME280;27971;53.902;9.118;2022-09-20T14:27:35;102263.0;;;25.9;21.22
41383;BME280;27971;53.902;9.118;2022-09-20T14:29:42;102262.0;;;26.55;20.92
41383;BME280;27971;53.902;9.118;2022-09-20T14:31:42;102265.0;;;26.7;20.76
41383;BME280;27971;53.902;9.118;2022-09-20T14:33:45;102268.0;;;26.86;20.68
41383;BME280;27971;53.902;9.118;2022-09-20T14:35:48;102268.0;;;26.97;20.58
41383;BME280;27971;53.902;9.118;2022-09-20T14:37:52;102269.0;;;26.86;20.58
41383;BME280;27971;53.902;9.118;2022-09-20T14:39:55;102269.0;;;26.8;20.53
41383;BME280;27971;53.902;9.118;2022-09-20T14:41:56;102269.0;;;26.65;20.69
41383;BME280;27971;53.902;9.118;2022-09-20T14:44:00;102272.0;;;27.02;20.48
41383;BME280;27971;53.902;9.118;2022-09-20T14:46:03;102273.0;;;27.05;20.42
41383;BME280;27971;53.902;9.118;2022-09-20T14:48:05;102272.0;;;27.15;20.32
41383;BME280;27971;53.902;9.118;2022-09-20T14:50:23;102274.0;;;27.07;20.44
41383;BME280;27971;53.902;9.118;2022-09-20T14:52:42;102273.0;;;26.97;20.58
41383;BME280;27971;53.902;9.118;2022-09-20T14:54:29;102278.0;;;26.82;20.91
41383;BME280;27971;53.902;9.118;2022-09-20T14:56:16;102277.0;;;26.73;20.97
41383;BME280;27971;53.902;9.118;2022-09-20T14:58:18;102276.0;;;26.22;21.32
41383;BME280;27971;53.902;9.118;2022-09-20T15:00:20;102279.0;;;25.94;21.56
41383;BME280;27971;53.902;9.118;2022-09-20T15:02:24;102279.0;;;25.76;21.64
41383;BME280;27971;53.902;9.118;2022-09-20T15:04:26;102279.0;;;25.24;21.91
41383;BME280;27971;53.902;9.118;2022-09-20T15:06:29;102282.0;;;23.96;22.98
41383;BME280;27971;53.902;9.118;2022-09-20T15:08:33;102283.0;;;23.79;23.31
41383;BME280;27971;53.902;9.118;2022-09-20T15:10:35;102287.0;;;23.24;23.78
41383;BME280;27971;53.902;9.118;2022-09-20T15:12:38;102290.0;;;23.11;23.94
41383;BME280;27971;53.902;9.118;2022-09-20T15:14:40;102291.0;;;23.47;23.71
41383;BME280;27971;53.902;9.118;2022-09-20T15:16:42;102287.0;;;24.02;23.29
41383;BME280;27971;53.902;9.118;2022-09-20T15:18:45;102288.0;;;24.68;22.79